Time;durP1;ratioP1;P1;durP2;ratioP2;P2;SDS_P1;SDS_P2;PMS_P1;PMS_P2;Temp;Humidity;BMP_temperature;BMP_pressure;BME280_temperature;BME280_humidity;BME280_pressure;Samples;Min_cycle;Max_cycle;Signal;HPM_P1;HPM_P2
2022/06/03 00:02:00;;;;;;;76.68;8.57;;;;;;;;;;5069022;28;20044;-24
2022/06/03 00:04:29;;;;;;;122.10;9.38;;;;;;;;;;5056168;28;20049;-24
2022/06/03 00:07:04;;;;;;;8.75;4.38;;;;;;;;;;5055614;28;20056;-24
2022/06/03 00:09:30;;;;;;;8.50;4.18;;;;;;;;;;5055002;28;20049;-25
2022/06/03 00:12:04;;;;;;;9.60;6.88;;;;;;;;;;5058808;28;20511;-25
2022/06/03 00:14:52;;;;;;;13.50;8.27;;;;;;;;;;5056040;28;20056;-24
2022/06/03 00:17:18;;;;;;;10.02;7.70;;;;;;;;;;5063391;28;20040;-25
2022/06/03 00:19:50;;;;;;;12.02;9.07;;;;;;;;;;5061118;28;20079;-24
2022/06/03 00:22:29;;;;;;;12.40;8.18;;;;;;;;;;5068174;28;20052;-25
2022/06/03 00:25:06;;;;;;;9.15;6.10;;;;;;;;;;5076760;28;20048;-24
2022/06/03 00:27:56;;;;;;;19.45;10.88;;;;;;;;;;5068220;28;20045;-25
2022/06/03 00:30:40;;;;;;;12.45;8.50;;;;;;;;;;5053949;28;20510;-25
2022/06/03 00:33:25;;;;;;;12.75;7.82;;;;;;;;;;5055320;28;20083;-25
2022/06/03 00:36:10;;;;;;;17.23;10.45;;;;;;;;;;5057975;28;20045;-24
2022/06/03 00:38:36;;;;;;;14.23;8.88;;;;;;;;;;5055957;28;20056;-25
2022/06/03 00:41:08;;;;;;;13.93;9.32;;;;;;;;;;5055157;28;20072;-25
2022/06/03 00:43:40;;;;;;;16.27;10.75;;;;;;;;;;5053535;28;20515;-25
2022/06/03 00:46:20;;;;;;;19.90;11.77;;;;;;;;;;5054913;28;20055;-24
2022/06/03 00:49:10;;;;;;;15.48;9.50;;;;;;;;;;5058655;28;20124;-25
2022/06/03 00:51:36;;;;;;;19.65;11.82;;;;;;;;;;5071151;28;20049;-25
2022/06/03 00:54:20;;;;;;;19.80;13.23;;;;;;;;;;5055010;28;20053;-25
2022/06/03 00:56:49;;;;;;;15.98;11.68;;;;;;;;;;5055351;28;20044;-25
2022/06/03 00:59:29;;;;;;;24.05;14.15;;;;;;;;;;5055117;28;20455;-25
2022/06/03 01:02:14;;;;;;;18.23;13.25;;;;;;;;;;5066371;28;20083;-25
2022/06/03 01:04:52;;;;;;;19.27;12.25;;;;;;;;;;5064977;28;20051;-25
2022/06/03 01:07:21;;;;;;;20.58;12.88;;;;;;;;;;5053587;28;20116;-25
2022/06/03 01:09:53;;;;;;;21.27;15.05;;;;;;;;;;5055179;28;20049;-25
2022/06/03 01:12:20;;;;;;;21.95;14.73;;;;;;;;;;5058157;28;20169;-25
2022/06/03 01:14:49;;;;;;;25.50;17.55;;;;;;;;;;5053430;28;20060;-25
2022/06/03 01:17:50;;;;;;;23.52;15.52;;;;;;;;;;5053678;28;20044;-25
2022/06/03 01:20:22;;;;;;;32.35;18.00;;;;;;;;;;5000029;28;20139;-25
2022/06/03 01:22:48;;;;;;;24.40;16.58;;;;;;;;;;5050706;28;20059;-25
2022/06/03 01:25:29;;;;;;;27.67;17.08;;;;;;;;;;5053211;28;20057;-25
2022/06/03 01:28:14;;;;;;;27.15;17.23;;;;;;;;;;5054235;28;20052;-24
2022/06/03 01:31:06;;;;;;;33.25;17.88;;;;;;;;;;5054534;28;20098;-25
2022/06/03 01:33:51;;;;;;;28.15;16.63;;;;;;;;;;5064907;28;20447;-25
2022/06/03 01:36:33;;;;;;;25.50;16.25;;;;;;;;;;5055409;28;20059;-25
2022/06/03 01:39:03;;;;;;;23.83;17.20;;;;;;;;;;5070061;28;20044;-25
2022/06/03 01:41:29;;;;;;;25.05;16.83;;;;;;;;;;5054349;28;20048;-25
2022/06/03 01:44:13;;;;;;;26.58;16.17;;;;;;;;;;5053436;28;20464;-25
2022/06/03 01:46:43;;;;;;;25.25;16.13;;;;;;;;;;5053401;28;20044;-25
2022/06/03 01:49:18;;;;;;;29.25;18.27;;;;;;;;;;5054089;28;20041;-25
2022/06/03 01:52:00;;;;;;;30.00;18.60;;;;;;;;;;5054723;28;20095;-25
2022/06/03 01:54:33;;;;;;;39.22;18.60;;;;;;;;;;5053005;28;20616;-25
2022/06/03 01:56:59;;;;;;;26.83;17.50;;;;;;;;;;5053865;28;20053;-25
2022/06/03 01:59:44;;;;;;;26.85;17.05;;;;;;;;;;5054115;28;20049;-25
2022/06/03 02:02:29;;;;;;;27.77;16.77;;;;;;;;;;5054173;28;20107;-25
2022/06/03 02:05:15;;;;;;;24.83;17.52;;;;;;;;;;5060017;28;20098;-26
2022/06/03 02:08:00;;;;;;;24.65;16.77;;;;;;;;;;5038331;28;20048;-25
2022/06/03 02:10:32;;;;;;;23.95;16.27;;;;;;;;;;5056933;28;20482;-25
2022/06/03 02:13:08;;;;;;;28.42;16.77;;;;;;;;;;5053481;28;20057;-25
2022/06/03 02:15:34;;;;;;;25.55;15.45;;;;;;;;;;5058323;28;20131;-25
2022/06/03 02:18:23;;;;;;;24.33;16.30;;;;;;;;;;5060149;28;20102;-25
2022/06/03 02:20:58;;;;;;;25.98;17.02;;;;;;;;;;5051777;28;20558;-26
2022/06/03 02:23:24;;;;;;;27.42;16.63;;;;;;;;;;5053358;28;20110;-25
2022/06/03 02:26:09;;;;;;;20.15;14.57;;;;;;;;;;5053090;28;20052;-25
2022/06/03 02:32:03;;;;;;;24.25;15.65;;;;;;;;;;5052740;28;20049;-25
2022/06/03 02:34:48;;;;;;;29.85;16.25;;;;;;;;;;5052983;28;20098;-25
2022/06/03 02:37:32;;;;;;;26.90;16.63;;;;;;;;;;5053581;28;20044;-25
2022/06/03 02:39:58;;;;;;;27.35;16.23;;;;;;;;;;5051932;28;20513;-25
2022/06/03 02:42:40;;;;;;;24.67;16.50;;;;;;;;;;5053631;28;20119;-26
2022/06/03 02:45:13;;;;;;;23.95;15.48;;;;;;;;;;5053321;28;20057;-25
2022/06/03 02:47:57;;;;;;;21.15;15.82;;;;;;;;;;5052523;28;20116;-25
2022/06/03 02:50:26;;;;;;;27.00;16.52;;;;;;;;;;5053366;28;20079;-25
2022/06/03 02:53:11;;;;;;;26.67;15.88;;;;;;;;;;5054386;28;20455;-25
2022/06/03 02:55:46;;;;;;;21.63;16.08;;;;;;;;;;5052992;28;20106;-25
2022/06/03 02:58:34;;;;;;;24.58;14.75;;;;;;;;;;5052818;28;20514;-25
2022/06/03 03:01:06;;;;;;;23.48;15.75;;;;;;;;;;5054274;28;20049;-25
2022/06/03 03:03:35;;;;;;;26.38;16.60;;;;;;;;;;5052198;28;20080;-25
2022/06/03 03:06:11;;;;;;;23.95;16.83;;;;;;;;;;5053666;28;20142;-25
2022/06/03 03:08:44;;;;;;;22.13;14.93;;;;;;;;;;5052926;28;20048;-25
2022/06/03 03:11:13;;;;;;;21.33;16.25;;;;;;;;;;5052897;28;20049;-24
2022/06/03 03:13:57;;;;;;;28.80;15.50;;;;;;;;;;5054865;28;20521;-25
2022/06/03 03:16:30;;;;;;;20.38;15.73;;;;;;;;;;5058905;28;20044;-25
2022/06/03 03:19:34;;;;;;;22.60;15.57;;;;;;;;;;5062985;28;20158;-25
2022/06/03 03:22:09;;;;;;;24.67;16.00;;;;;;;;;;5016143;28;20300;-25
2022/06/03 03:24:53;;;;;;;24.88;15.70;;;;;;;;;;5020795;28;20045;-25
2022/06/03 03:27:25;;;;;;;24.65;16.40;;;;;;;;;;5048714;28;20049;-25
2022/06/03 03:30:10;;;;;;;24.25;16.55;;;;;;;;;;5057301;28;20071;-25
2022/06/03 03:32:53;;;;;;;25.55;15.90;;;;;;;;;;5056091;28;20509;-25
2022/06/03 03:35:38;;;;;;;27.08;17.98;;;;;;;;;;5057317;28;20768;-25
2022/06/03 03:38:13;;;;;;;26.27;15.98;;;;;;;;;;5056294;28;20127;-25
2022/06/03 03:40:51;;;;;;;24.52;16.25;;;;;;;;;;5055454;28;20052;-25
2022/06/03 03:43:20;;;;;;;20.40;15.85;;;;;;;;;;5055037;28;20077;-25
2022/06/03 03:46:06;;;;;;;23.92;17.00;;;;;;;;;;5056512;28;20402;-25
2022/06/03 03:48:51;;;;;;;29.23;16.40;;;;;;;;;;5044294;28;20057;-25
2022/06/03 03:51:32;;;;;;;19.13;14.18;;;;;;;;;;5056267;28;20076;-25
2022/06/03 03:54:07;;;;;;;24.38;15.55;;;;;;;;;;5056549;28;20140;-25
2022/06/03 03:56:36;;;;;;;27.33;16.88;;;;;;;;;;5056639;28;20394;-25
2022/06/03 03:59:16;;;;;;;22.92;14.93;;;;;;;;;;5055957;28;20119;-25
2022/06/03 04:01:51;;;;;;;22.52;15.18;;;;;;;;;;5056674;28;20494;-25
2022/06/03 04:04:30;;;;;;;22.02;15.90;;;;;;;;;;5057101;28;20071;-25
2022/06/03 04:07:10;;;;;;;24.15;14.60;;;;;;;;;;5056616;28;20052;-25
2022/06/03 04:09:36;;;;;;;23.27;13.98;;;;;;;;;;5055831;28;20120;-25
2022/06/03 04:12:08;;;;;;;21.50;13.70;;;;;;;;;;5055731;28;20061;-25
2022/06/03 04:14:53;;;;;;;21.85;13.23;;;;;;;;;;5058492;28;20549;-25
2022/06/03 04:17:38;;;;;;;19.75;13.60;;;;;;;;;;5055881;28;20510;-25
2022/06/03 04:20:07;;;;;;;19.17;12.55;;;;;;;;;;5055006;28;20460;-26
2022/06/03 04:22:33;;;;;;;16.25;11.70;;;;;;;;;;5055968;28;20041;-25
2022/06/03 04:25:18;;;;;;;15.95;12.32;;;;;;;;;;5054919;28;20068;-25
2022/06/03 04:28:02;;;;;;;18.67;11.60;;;;;;;;;;5054669;28;20106;-25
2022/06/03 04:30:33;;;;;;;15.35;10.98;;;;;;;;;;5053981;28;20120;-25
2022/06/03 04:33:12;;;;;;;15.27;10.75;;;;;;;;;;5055801;28;20045;-25
2022/06/03 04:35:54;;;;;;;18.70;10.45;;;;;;;;;;5055755;28;20134;-25
2022/06/03 04:38:35;;;;;;;13.32;10.35;;;;;;;;;;5042526;28;20079;-25
2022/06/03 04:41:30;;;;;;;17.23;11.00;;;;;;;;;;5056163;28;20045;-26
2022/06/03 04:43:56;;;;;;;14.48;10.10;;;;;;;;;;5037680;28;20388;-25
2022/06/03 04:46:42;;;;;;;12.20;9.57;;;;;;;;;;5055205;28;20106;-26
2022/06/03 04:49:27;;;;;;;12.95;9.80;;;;;;;;;;5065183;28;20175;-26
2022/06/03 04:51:56;;;;;;;13.10;10.02;;;;;;;;;;5053200;28;20414;-26
2022/06/03 04:54:42;;;;;;;12.63;10.10;;;;;;;;;;5055415;28;20135;-26
2022/06/03 04:57:17;;;;;;;15.13;9.75;;;;;;;;;;5054824;28;20049;-26
2022/06/03 04:59:46;;;;;;;12.57;9.15;;;;;;;;;;5055607;28;20080;-26
2022/06/03 05:02:31;;;;;;;11.50;9.88;;;;;;;;;;5054766;28;20041;-26
2022/06/03 05:05:17;;;;;;;14.25;8.60;;;;;;;;;;5055086;28;20131;-26
2022/06/03 05:07:53;;;;;;;13.50;8.88;;;;;;;;;;5054286;28;20055;-26
2022/06/03 05:10:37;;;;;;;10.63;8.18;;;;;;;;;;5055656;28;20083;-26
2022/06/03 05:13:19;;;;;;;8.88;7.75;;;;;;;;;;5064786;28;20057;-26
2022/06/03 05:16:04;;;;;;;11.25;7.32;;;;;;;;;;5054648;28;20494;-26
2022/06/03 05:18:44;;;;;;;9.02;6.75;;;;;;;;;;5070077;28;20044;-26
2022/06/03 05:21:23;;;;;;;7.68;5.95;;;;;;;;;;5054946;28;20044;-26
2022/06/03 05:24:02;;;;;;;7.95;6.53;;;;;;;;;;5053898;28;20047;-25
2022/06/03 05:26:47;;;;;;;10.45;6.70;;;;;;;;;;5055392;28;20084;-25
2022/06/03 05:29:31;;;;;;;9.85;6.70;;;;;;;;;;5054701;28;20045;-25
2022/06/03 05:31:57;;;;;;;7.60;5.72;;;;;;;;;;5055001;28;20049;-25
2022/06/03 05:34:41;;;;;;;8.98;5.90;;;;;;;;;;5054334;28;20044;-25
2022/06/03 05:37:19;;;;;;;9.82;5.78;;;;;;;;;;5054582;28;20107;-25
2022/06/03 05:40:06;;;;;;;10.35;5.97;;;;;;;;;;5054071;28;20144;-25
2022/06/03 05:42:50;;;;;;;10.57;6.13;;;;;;;;;;5054252;28;20049;-25
2022/06/03 05:45:34;;;;;;;7.63;5.40;;;;;;;;;;5052889;28;20044;-25
2022/06/03 05:48:07;;;;;;;8.43;5.22;;;;;;;;;;5054077;28;20387;-25
2022/06/03 05:50:44;;;;;;;8.82;5.60;;;;;;;;;;5052942;28;20124;-25
2022/06/03 05:53:19;;;;;;;8.68;5.07;;;;;;;;;;5053330;28;20051;-25
2022/06/03 05:56:18;;;;;;;8.70;5.65;;;;;;;;;;5053333;28;20056;-25
2022/06/03 05:58:46;;;;;;;7.95;5.20;;;;;;;;;;5054513;28;20394;-25
2022/06/03 06:01:19;;;;;;;8.93;6.07;;;;;;;;;;5053523;28;20036;-25
2022/06/03 06:03:52;;;;;;;8.33;6.13;;;;;;;;;;5053736;28;20055;-25
2022/06/03 06:06:25;;;;;;;6.80;4.60;;;;;;;;;;5057370;28;20314;-25
2022/06/03 06:09:10;;;;;;;8.38;4.80;;;;;;;;;;5066591;28;20044;-25
2022/06/03 06:11:56;;;;;;;8.32;4.50;;;;;;;;;;5065553;28;20045;-25
2022/06/03 06:14:34;;;;;;;7.53;4.30;;;;;;;;;;5069014;28;20075;-25
2022/06/03 06:17:20;;;;;;;7.13;4.10;;;;;;;;;;5053900;28;20049;-25
2022/06/03 06:19:52;;;;;;;5.22;3.15;;;;;;;;;;5053987;28;20052;-25
2022/06/03 06:22:25;;;;;;;8.70;4.13;;;;;;;;;;5053860;28;20045;-25
2022/06/03 06:25:00;;;;;;;5.53;2.90;;;;;;;;;;5071965;28;20087;-25
2022/06/03 06:27:45;;;;;;;5.75;4.00;;;;;;;;;;5073734;28;20123;-25
2022/06/03 06:30:17;;;;;;;9.40;5.10;;;;;;;;;;5073158;28;20406;-25
2022/06/03 06:32:47;;;;;;;5.70;3.83;;;;;;;;;;5073646;28;20105;-25
2022/06/03 06:35:31;;;;;;;4.40;2.80;;;;;;;;;;5072696;28;20058;-25
2022/06/03 06:38:19;;;;;;;5.85;2.75;;;;;;;;;;5072423;28;20053;-25
2022/06/03 06:40:57;;;;;;;7.60;2.85;;;;;;;;;;5073650;28;20048;-25
2022/06/03 06:43:27;;;;;;;4.57;2.20;;;;;;;;;;5073608;28;20051;-26
2022/06/03 06:45:53;;;;;;;4.70;2.55;;;;;;;;;;5074119;28;20048;-25
2022/06/03 06:48:19;;;;;;;4.95;2.33;;;;;;;;;;5072519;28;20052;-24
2022/06/03 06:50:49;;;;;;;4.60;1.98;;;;;;;;;;5073462;28;20139;-25
2022/06/03 06:53:18;;;;;;;3.33;1.70;;;;;;;;;;5075430;28;20056;-25
2022/06/03 06:55:47;;;;;;;5.05;2.40;;;;;;;;;;5070890;28;20040;-25
2022/06/03 06:58:27;;;;;;;6.78;2.40;;;;;;;;;;5071473;28;20459;-25
2022/06/03 07:00:54;;;;;;;3.40;2.22;;;;;;;;;;5077895;28;20097;-25
2022/06/03 07:03:22;;;;;;;4.47;2.15;;;;;;;;;;5077539;28;20059;-25
2022/06/03 07:05:53;;;;;;;2.80;1.85;;;;;;;;;;5077948;28;20110;-25
2022/06/03 07:08:24;;;;;;;3.30;1.77;;;;;;;;;;5070022;28;20041;-25
2022/06/03 07:11:10;;;;;;;5.35;1.75;;;;;;;;;;5075713;28;20386;-25
2022/06/03 07:13:42;;;;;;;3.05;1.38;;;;;;;;;;5059345;28;20076;-25
2022/06/03 07:19:47;;;;;;;2.75;1.40;;;;;;;;;;5057891;28;20045;-25
2022/06/03 07:22:03;;;;;;;5.88;1.50;;;;;;;;;;5056242;28;20063;-25
2022/06/03 07:24:46;;;;;;;3.47;1.40;;;;;;;;;;5057297;28;20102;-25
2022/06/03 07:27:29;;;;;;;1.80;1.15;;;;;;;;;;5060118;28;20127;-25
2022/06/03 07:30:06;;;;;;;3.72;2.25;;;;;;;;;;5058922;28;20103;-25
2022/06/03 07:32:43;;;;;;;1.58;1.05;;;;;;;;;;5077065;28;20048;-25
2022/06/03 07:35:19;;;;;;;2.17;1.00;;;;;;;;;;5057868;28;20114;-25
2022/06/03 07:37:54;;;;;;;2.58;1.23;;;;;;;;;;5056677;28;20498;-25
2022/06/03 07:40:39;;;;;;;1.58;1.10;;;;;;;;;;5055859;28;20056;-25
2022/06/03 07:43:17;;;;;;;3.38;1.35;;;;;;;;;;5055828;28;20048;-25
2022/06/03 07:45:54;;;;;;;1.13;0.90;;;;;;;;;;5056113;28;20088;-25
2022/06/03 07:48:24;;;;;;;2.22;1.05;;;;;;;;;;5066703;28;20508;-25
2022/06/03 07:50:56;;;;;;;2.95;1.05;;;;;;;;;;5076522;28;20055;-25
2022/06/03 07:53:29;;;;;;;1.63;0.97;;;;;;;;;;5076520;28;20040;-25
2022/06/03 07:55:57;;;;;;;1.73;0.88;;;;;;;;;;5077099;28;20157;-25
2022/06/03 07:58:25;;;;;;;3.65;0.95;;;;;;;;;;5069403;28;20041;-25
2022/06/03 08:00:51;;;;;;;1.75;0.70;;;;;;;;;;5057224;28;20045;-25
2022/06/03 08:03:20;;;;;;;1.83;1.00;;;;;;;;;;5056104;28;20458;-25
2022/06/03 08:05:47;;;;;;;2.08;1.02;;;;;;;;;;5056835;28;20052;-25
2022/06/03 08:11:04;;;;;;;3.53;2.10;;;;;;;;;;5062548;28;20072;-25
2022/06/03 08:13:39;;;;;;;3.17;2.10;;;;;;;;;;5056851;28;20052;-25
2022/06/03 08:16:08;;;;;;;2.88;0.65;;;;;;;;;;5064520;28;20048;-25
2022/06/03 08:18:40;;;;;;;2.00;1.00;;;;;;;;;;5076385;28;20437;-25
2022/06/03 08:21:08;;;;;;;2.90;0.70;;;;;;;;;;5076687;28;20044;-25
2022/06/03 08:23:34;;;;;;;1.10;0.70;;;;;;;;;;5076034;28;20431;-25
2022/06/03 08:26:03;;;;;;;1.23;0.77;;;;;;;;;;5075960;28;20048;-25
2022/06/03 08:28:31;;;;;;;0.82;0.60;;;;;;;;;;5065534;28;20041;-25
2022/06/03 08:30:58;;;;;;;1.02;0.60;;;;;;;;;;5056189;28;20037;-26
2022/06/03 08:33:33;;;;;;;3.05;1.50;;;;;;;;;;5055876;28;20434;-25
2022/06/03 08:35:59;;;;;;;2.40;1.35;;;;;;;;;;5055752;28;20486;-25
2022/06/03 08:38:28;;;;;;;1.58;0.90;;;;;;;;;;5055712;28;20045;-26
2022/06/03 08:41:07;;;;;;;2.38;0.85;;;;;;;;;;5056267;28;20055;-25
2022/06/03 08:43:36;;;;;;;3.78;0.90;;;;;;;;;;5055652;28;20049;-25
2022/06/03 08:46:17;;;;;;;1.73;0.77;;;;;;;;;;5059121;28;20074;-25
2022/06/03 08:48:45;;;;;;;1.80;0.68;;;;;;;;;;5075565;28;20048;-25
2022/06/03 08:51:16;;;;;;;2.70;0.80;;;;;;;;;;5075465;28;20383;-26
2022/06/03 08:53:50;;;;;;;1.70;0.88;;;;;;;;;;5076341;28;20047;-25
2022/06/03 08:56:22;;;;;;;1.40;0.70;;;;;;;;;;5073518;28;20460;-25
2022/06/03 08:58:54;;;;;;;1.23;0.70;;;;;;;;;;5074985;28;20040;-25
2022/06/03 09:01:20;;;;;;;3.03;0.82;;;;;;;;;;5074361;28;20481;-25
2022/06/03 09:03:49;;;;;;;2.33;0.82;;;;;;;;;;5074877;28;20528;-26
2022/06/03 09:06:34;;;;;;;2.05;1.23;;;;;;;;;;5075170;28;20086;-25
2022/06/03 09:09:05;;;;;;;4.97;0.80;;;;;;;;;;5055912;28;20077;-26
2022/06/03 09:11:36;;;;;;;3.03;1.17;;;;;;;;;;5055084;28;20041;-25
2022/06/03 09:14:05;;;;;;;2.38;0.90;;;;;;;;;;5055137;28;20059;-26
2022/06/03 09:16:32;;;;;;;2.67;0.90;;;;;;;;;;5055148;28;20045;-26
2022/06/03 09:19:19;;;;;;;3.88;1.13;;;;;;;;;;5055009;28;20052;-26
2022/06/03 09:21:51;;;;;;;4.22;0.95;;;;;;;;;;5057674;28;20102;-26
2022/06/03 09:24:20;;;;;;;3.80;1.27;;;;;;;;;;5067578;28;20394;-26
2022/06/03 09:26:48;;;;;;;2.55;1.30;;;;;;;;;;5074636;28;20045;-25
2022/06/03 09:29:15;;;;;;;1.88;1.27;;;;;;;;;;5062468;28;20136;-25
2022/06/03 09:31:45;;;;;;;1.52;1.35;;;;;;;;;;5054271;28;20076;-26
2022/06/03 09:34:11;;;;;;;2.25;1.88;;;;;;;;;;5059661;28;20040;-26
2022/06/03 09:36:38;;;;;;;3.53;1.42;;;;;;;;;;5074052;28;20135;-26
2022/06/03 09:39:06;;;;;;;2.92;1.08;;;;;;;;;;5065210;28;20048;-25
2022/06/03 09:41:35;;;;;;;3.78;1.20;;;;;;;;;;5056516;28;20051;-26
2022/06/03 09:44:03;;;;;;;2.47;1.33;;;;;;;;;;5058779;28;20399;-26
2022/06/03 09:46:30;;;;;;;3.63;1.35;;;;;;;;;;5054428;28;20095;-26
2022/06/03 09:48:57;;;;;;;4.07;2.90;;;;;;;;;;5058942;28;20055;-26
2022/06/03 09:51:55;;;;;;;2.63;1.50;;;;;;;;;;5062950;28;20036;-26
2022/06/03 09:54:11;;;;;;;1.98;1.20;;;;;;;;;;5059268;28;20101;-26
2022/06/03 09:56:38;;;;;;;4.18;1.70;;;;;;;;;;5065435;28;20052;-26
2022/06/03 09:59:04;;;;;;;3.05;1.25;;;;;;;;;;5063163;28;20120;-26
2022/06/03 10:01:30;;;;;;;2.40;1.20;;;;;;;;;;5073336;28;20119;-26
2022/06/03 10:04:00;;;;;;;4.95;1.27;;;;;;;;;;5074084;28;20052;-26
2022/06/03 10:14:41;;;;;;;3.35;1.50;;;;;;;;;;5056712;28;20045;-26
2022/06/03 10:17:09;;;;;;;2.30;1.20;;;;;;;;;;5054771;28;20049;-26
2022/06/03 10:19:35;;;;;;;1.42;1.23;;;;;;;;;;5053874;28;20129;-26
2022/06/03 10:22:08;;;;;;;4.03;1.30;;;;;;;;;;5053142;28;20056;-26
2022/06/03 10:24:34;;;;;;;;;;;;;;;;;;5057088;28;20041;-28
2022/06/03 10:27:01;;;;;;;2.58;1.25;;;;;;;;;;5065380;28;19920;-26
2022/06/03 10:29:29;;;;;;;2.70;1.30;;;;;;;;;;5061164;28;20135;-26
2022/06/03 10:31:55;;;;;;;6.35;1.42;;;;;;;;;;5056874;28;20106;-26
2022/06/03 10:34:25;;;;;;;2.10;1.13;;;;;;;;;;5069578;28;20076;-26
2022/06/03 10:36:54;;;;;;;5.63;2.47;;;;;;;;;;5069293;28;20037;-26
2022/06/03 10:39:23;;;;;;;3.15;2.10;;;;;;;;;;5059489;28;20124;-29
2022/06/03 10:41:54;;;;;;;4.80;1.15;;;;;;;;;;5061056;28;20115;-26
2022/06/03 10:44:22;;;;;;;1.05;0.90;;;;;;;;;;5057403;28;20051;-27
2022/06/03 10:46:53;;;;;;;3.70;1.30;;;;;;;;;;5060707;28;20098;-30
2022/06/03 10:49:20;;;;;;;2.42;1.20;;;;;;;;;;5059930;28;20068;-27
2022/06/03 11:02:49;;;;;;;3.08;1.08;;;;;;;;;;5060645;28;20051;-26
2022/06/03 11:05:28;;;;;;;2.13;1.35;;;;;;;;;;5057509;28;20052;-26
2022/06/03 11:08:14;;;;;;;6.85;1.25;;;;;;;;;;5061150;28;20052;-26
2022/06/03 11:10:42;;;;;;;2.15;1.00;;;;;;;;;;5059877;28;20436;-26
2022/06/03 11:13:09;;;;;;;1.67;1.00;;;;;;;;;;5054714;28;20426;-26
2022/06/03 11:15:37;;;;;;;3.42;1.90;;;;;;;;;;5062489;28;20501;-26
2022/06/03 11:18:22;;;;;;;5.55;1.30;;;;;;;;;;5054059;28;20045;-26
2022/06/03 11:20:50;;;;;;;2.35;1.52;;;;;;;;;;5061062;28;20092;-26
2022/06/03 11:23:17;;;;;;;2.55;1.35;;;;;;;;;;5056871;28;20048;-26
2022/06/03 11:25:46;;;;;;;1.35;0.93;;;;;;;;;;5058791;28;20045;-26
2022/06/03 11:28:24;;;;;;;1.80;1.10;;;;;;;;;;5053106;28;20052;-26
2022/06/03 11:31:10;;;;;;;3.75;3.00;;;;;;;;;;5064639;28;20479;-26
2022/06/03 11:33:39;;;;;;;4.07;1.60;;;;;;;;;;5060167;28;20084;-26
2022/06/03 11:36:06;;;;;;;2.20;1.00;;;;;;;;;;5055078;28;20052;-27
2022/06/03 11:38:48;;;;;;;3.60;1.00;;;;;;;;;;5060320;28;20080;-26
2022/06/03 11:41:19;;;;;;;3.00;1.07;;;;;;;;;;5055521;28;20044;-26
2022/06/03 11:43:51;;;;;;;4.30;1.30;;;;;;;;;;5058401;28;20109;-26
2022/06/03 11:46:21;;;;;;;2.35;1.05;;;;;;;;;;5053999;28;20040;-27
2022/06/03 11:48:50;;;;;;;3.25;1.17;;;;;;;;;;5051434;28;20052;-27
2022/06/03 11:51:16;;;;;;;4.03;1.38;;;;;;;;;;5064925;28;20148;-26
2022/06/03 11:53:47;;;;;;;2.58;1.23;;;;;;;;;;5075024;28;20044;-26
2022/06/03 11:56:15;;;;;;;2.37;1.10;;;;;;;;;;5063559;28;20040;-26
2022/06/03 11:59:05;;;;;;;3.90;1.42;;;;;;;;;;5056522;28;20049;-26
2022/06/03 12:01:56;;;;;;;1.95;0.98;;;;;;;;;;5056177;28;20041;-26
2022/06/03 12:04:22;;;;;;;3.75;1.05;;;;;;;;;;5057637;28;20037;-26
2022/06/03 12:06:54;;;;;;;3.92;1.60;;;;;;;;;;5063509;28;20083;-26
2022/06/03 12:09:23;;;;;;;4.68;1.45;;;;;;;;;;5073530;28;20384;-26
2022/06/03 12:14:49;;;;;;;3.45;1.30;;;;;;;;;;5059632;28;20057;-26
2022/06/03 12:17:15;;;;;;;2.22;1.50;;;;;;;;;;5055388;28;20472;-26
2022/06/03 12:19:43;;;;;;;2.47;1.55;;;;;;;;;;5054398;28;20124;-30
2022/06/03 12:22:27;;;;;;;2.08;1.17;;;;;;;;;;5056828;28;20041;-26
2022/06/03 12:24:54;;;;;;;2.35;1.20;;;;;;;;;;5054053;28;20390;-26
2022/06/03 12:27:23;;;;;;;2.55;1.23;;;;;;;;;;5055452;28;20045;-26
2022/06/03 12:30:13;;;;;;;2.28;1.33;;;;;;;;;;5055168;28;20045;-26
2022/06/03 12:32:39;;;;;;;3.35;1.10;;;;;;;;;;5054979;28;20040;-26
2022/06/03 12:35:25;;;;;;;2.42;0.80;;;;;;;;;;5054850;28;20056;-26
2022/06/03 12:38:10;;;;;;;2.55;1.10;;;;;;;;;;5065430;28;20128;-26
2022/06/03 12:40:37;;;;;;;2.42;1.20;;;;;;;;;;5057137;28;20076;-26
2022/06/03 12:43:21;;;;;;;3.72;0.85;;;;;;;;;;5067709;28;20087;-26
2022/06/03 12:45:56;;;;;;;3.00;1.10;;;;;;;;;;5061179;28;20052;-26
2022/06/03 12:48:36;;;;;;;2.13;0.57;;;;;;;;;;5055668;28;20056;-26
2022/06/03 12:51:19;;;;;;;3.17;1.00;;;;;;;;;;5063956;28;20043;-27
2022/06/03 12:53:45;;;;;;;;;;;;;;;;;;5063683;28;20133;-26
2022/06/03 12:56:29;;;;;;;2.92;0.73;;;;;;;;;;5071386;28;20382;-26
2022/06/03 12:59:00;;;;;;;4.32;0.82;;;;;;;;;;5066813;28;20063;-26
2022/06/03 13:01:52;;;;;;;3.38;0.85;;;;;;;;;;5055428;28;20098;-26
2022/06/03 13:04:25;;;;;;;4.40;0.85;;;;;;;;;;5049567;28;20394;-26
2022/06/03 13:07:10;;;;;;;3.17;0.80;;;;;;;;;;5054010;28;20045;-26
2022/06/03 13:09:53;;;;;;;3.70;0.68;;;;;;;;;;5065506;28;20210;-26
2022/06/03 13:12:29;;;;;;;3.70;0.45;;;;;;;;;;5057042;28;20052;-27
2022/06/03 13:14:55;;;;;;;1.23;0.60;;;;;;;;;;5052592;28;20532;-26
2022/06/03 13:17:41;;;;;;;2.75;0.60;;;;;;;;;;5055720;28;20048;-26
2022/06/03 13:20:09;;;;;;;2.60;0.60;;;;;;;;;;5054813;28;20127;-26
2022/06/03 13:22:51;;;;;;;2.92;0.60;;;;;;;;;;5053331;28;20056;-26
2022/06/03 13:25:17;;;;;;;0.77;0.20;;;;;;;;;;5052639;28;20053;-26
2022/06/03 13:28:03;;;;;;;3.65;0.65;;;;;;;;;;5054027;28;20076;-26
2022/06/03 13:30:38;;;;;;;4.47;0.70;;;;;;;;;;5054145;28;20102;-26
2022/06/03 13:33:25;;;;;;;2.42;0.40;;;;;;;;;;5053571;28;20106;-26
2022/06/03 13:36:17;;;;;;;1.67;0.95;;;;;;;;;;5054784;28;20095;-26
2022/06/03 13:38:45;;;;;;;2.80;0.60;;;;;;;;;;5054195;28;20060;-26
2022/06/03 13:44:08;;;;;;;2.83;0.60;;;;;;;;;;5073934;28;20394;-26
2022/06/03 13:46:35;;;;;;;1.95;0.40;;;;;;;;;;5061276;28;20044;-26
2022/06/03 13:49:06;;;;;;;3.85;0.65;;;;;;;;;;5054441;28;20080;-26
2022/06/03 13:51:58;;;;;;;1.90;0.40;;;;;;;;;;5058897;28;20403;-26
2022/06/03 13:54:33;;;;;;;3.17;0.45;;;;;;;;;;5058557;28;20056;-27
2022/06/03 13:57:18;;;;;;;2.05;0.40;;;;;;;;;;5058938;28;20138;-26
2022/06/03 13:59:44;;;;;;;2.33;0.40;;;;;;;;;;5070181;28;20414;-26
2022/06/03 14:02:14;;;;;;;3.17;0.40;;;;;;;;;;5074432;28;20047;-26
2022/06/03 14:05:10;;;;;;;1.77;0.30;;;;;;;;;;5057636;28;20550;-26
2022/06/03 14:07:55;;;;;;;2.05;0.52;;;;;;;;;;5053158;28;20060;-26
2022/06/03 14:10:22;;;;;;;3.10;2.10;;;;;;;;;;5054485;28;20486;-25
2022/06/03 14:12:52;;;;;;;1.58;0.35;;;;;;;;;;5053703;28;20080;-26
2022/06/03 14:15:33;;;;;;;2.28;0.50;;;;;;;;;;5057118;28;20056;-26
2022/06/03 14:17:59;;;;;;;1.13;0.30;;;;;;;;;;5074092;28;20055;-26
2022/06/03 14:20:42;;;;;;;2.17;0.30;;;;;;;;;;5073286;28;20516;-27
2022/06/03 14:23:12;;;;;;;3.13;0.50;;;;;;;;;;5056330;28;20194;-26
2022/06/03 14:26:01;;;;;;;2.17;0.60;;;;;;;;;;5056187;28;20131;-26
2022/06/03 14:28:41;;;;;;;4.18;1.48;;;;;;;;;;5067531;28;20128;-26
2022/06/03 14:31:11;;;;;;;7.60;1.70;;;;;;;;;;5058162;28;20482;-26
2022/06/03 14:33:39;;;;;;;2.55;0.30;;;;;;;;;;5056037;28;20128;-26
2022/06/03 14:36:07;;;;;;;1.63;0.30;;;;;;;;;;5074347;28;20090;-26
2022/06/03 14:38:41;;;;;;;1.80;0.50;;;;;;;;;;5078067;28;20056;-26
2022/06/03 14:41:12;;;;;;;1.60;0.32;;;;;;;;;;5074267;28;20516;-26
2022/06/03 14:43:39;;;;;;;1.90;0.30;;;;;;;;;;5067729;28;20080;-26
2022/06/03 14:46:16;;;;;;;1.70;0.57;;;;;;;;;;5058184;28;20052;-26
2022/06/03 14:49:02;;;;;;;3.83;0.65;;;;;;;;;;5055692;28;20486;-26
2022/06/03 14:51:32;;;;;;;4.38;1.00;;;;;;;;;;5074358;28;20045;-26
2022/06/03 14:54:01;;;;;;;3.15;1.40;;;;;;;;;;5064709;28;20048;-26
2022/06/03 14:56:37;;;;;;;2.60;1.05;;;;;;;;;;5066056;28;20071;-26
2022/06/03 14:59:10;;;;;;;4.28;0.85;;;;;;;;;;5055032;28;20549;-26
2022/06/03 15:01:49;;;;;;;4.28;0.75;;;;;;;;;;5069539;28;20512;-26
2022/06/03 15:04:21;;;;;;;7.65;0.75;;;;;;;;;;5073940;28;20098;-26
2022/06/03 15:06:51;;;;;;;3.28;0.55;;;;;;;;;;5062833;28;20526;-28
2022/06/03 15:09:17;;;;;;;2.50;0.63;;;;;;;;;;5061564;28;20049;-26
2022/06/03 15:11:46;;;;;;;2.03;0.80;;;;;;;;;;5073217;28;20474;-27
2022/06/03 15:14:18;;;;;;;3.53;0.50;;;;;;;;;;5074512;28;20406;-26
2022/06/03 15:16:51;;;;;;;2.35;0.65;;;;;;;;;;5076724;28;20091;-27
2022/06/03 15:19:32;;;;;;;3.38;0.65;;;;;;;;;;5058463;28;20117;-26
2022/06/03 15:21:58;;;;;;;2.30;0.60;;;;;;;;;;5058329;28;20052;-26
2022/06/03 15:24:25;;;;;;;3.15;0.80;;;;;;;;;;5057022;28;20041;-26
2022/06/03 15:26:52;;;;;;;2.60;0.65;;;;;;;;;;5069992;28;20051;-26
2022/06/03 15:29:22;;;;;;;3.47;0.63;;;;;;;;;;5061906;28;20052;-26
2022/06/03 15:31:51;;;;;;;4.47;0.70;;;;;;;;;;5060545;28;20072;-26
2022/06/03 15:34:19;;;;;;;1.75;0.60;;;;;;;;;;5077315;28;20049;-26
2022/06/03 15:36:46;;;;;;;4.00;0.90;;;;;;;;;;5076902;28;20049;-26
2022/06/03 15:39:18;;;;;;;2.15;0.75;;;;;;;;;;5075645;28;20048;-26
2022/06/03 15:41:46;;;;;;;1.73;0.45;;;;;;;;;;5071933;28;20036;-27
2022/06/03 15:44:13;;;;;;;2.40;0.60;;;;;;;;;;5059169;28;20080;-26
2022/06/03 15:46:59;;;;;;;1.55;0.60;;;;;;;;;;5075607;28;20055;-26
2022/06/03 15:49:27;;;;;;;2.03;0.68;;;;;;;;;;5076896;28;20052;-26
2022/06/03 15:51:53;;;;;;;2.50;0.77;;;;;;;;;;5072401;28;20040;-26
2022/06/03 15:54:28;;;;;;;3.30;0.95;;;;;;;;;;5071574;28;20048;-26
2022/06/03 15:57:12;;;;;;;7.25;1.08;;;;;;;;;;5076563;28;20110;-26